sensor_id;sensor_type;location;lat;lon;timestamp;temperature;humidity
45969;DHT22;31676;40.444;-3.668;2022-10-18T00:00:30;25.30;75.00
45969;DHT22;31676;40.444;-3.668;2022-10-18T00:02:55;25.20;74.30
45969;DHT22;31676;40.444;-3.668;2022-10-18T00:05:21;25.30;74.40
45969;DHT22;31676;40.444;-3.668;2022-10-18T00:07:47;25.20;74.30
45969;DHT22;31676;40.444;-3.668;2022-10-18T00:10:12;25.30;74.40
45969;DHT22;31676;40.444;-3.668;2022-10-18T00:12:38;25.30;74.40
45969;DHT22;31676;40.444;-3.668;2022-10-18T00:15:05;25.20;74.30
45969;DHT22;31676;40.444;-3.668;2022-10-18T00:17:32;25.20;74.30
45969;DHT22;31676;40.444;-3.668;2022-10-18T00:19:58;25.20;74.40
45969;DHT22;31676;40.444;-3.668;2022-10-18T00:22:24;25.20;74.30
45969;DHT22;31676;40.444;-3.668;2022-10-18T00:24:49;25.20;74.30
45969;DHT22;31676;40.444;-3.668;2022-10-18T00:27:15;25.20;74.30
45969;DHT22;31676;40.444;-3.668;2022-10-18T00:29:41;25.20;74.40
45969;DHT22;31676;40.444;-3.668;2022-10-18T00:32:07;25.20;74.40
45969;DHT22;31676;40.444;-3.668;2022-10-18T00:34:32;25.20;75.00
45969;DHT22;31676;40.444;-3.668;2022-10-18T00:36:58;25.20;75.00
45969;DHT22;31676;40.444;-3.668;2022-10-18T00:39:23;25.20;74.40
45969;DHT22;31676;40.444;-3.668;2022-10-18T00:41:49;25.20;74.40
45969;DHT22;31676;40.444;-3.668;2022-10-18T00:46:42;25.20;74.40
45969;DHT22;31676;40.444;-3.668;2022-10-18T00:49:16;25.20;74.40
45969;DHT22;31676;40.444;-3.668;2022-10-18T00:51:44;25.20;74.40
45969;DHT22;31676;40.444;-3.668;2022-10-18T00:54:14;25.20;74.40
45969;DHT22;31676;40.444;-3.668;2022-10-18T00:56:41;25.20;74.40
45969;DHT22;31676;40.444;-3.668;2022-10-18T00:59:09;25.20;74.40
45969;DHT22;31676;40.444;-3.668;2022-10-18T01:01:35;25.20;74.50
45969;DHT22;31676;40.444;-3.668;2022-10-18T01:04:01;25.20;74.40
45969;DHT22;31676;40.444;-3.668;2022-10-18T01:06:27;25.20;74.40
45969;DHT22;31676;40.444;-3.668;2022-10-18T01:16:24;25.10;74.40
45969;DHT22;31676;40.444;-3.668;2022-10-18T01:24:05;25.20;74.40
45969;DHT22;31676;40.444;-3.668;2022-10-18T01:31:57;25.10;74.40
45969;DHT22;31676;40.444;-3.668;2022-10-18T01:34:24;25.10;74.40
45969;DHT22;31676;40.444;-3.668;2022-10-18T01:36:51;25.10;74.40
45969;DHT22;31676;40.444;-3.668;2022-10-18T01:39:22;25.10;74.40
45969;DHT22;31676;40.444;-3.668;2022-10-18T01:41:49;25.10;74.40
45969;DHT22;31676;40.444;-3.668;2022-10-18T01:44:22;25.10;74.40
45969;DHT22;31676;40.444;-3.668;2022-10-18T01:46:52;25.10;74.40
45969;DHT22;31676;40.444;-3.668;2022-10-18T01:49:19;25.10;74.40
45969;DHT22;31676;40.444;-3.668;2022-10-18T01:51:45;25.10;74.40
45969;DHT22;31676;40.444;-3.668;2022-10-18T01:54:12;25.10;74.30
45969;DHT22;31676;40.444;-3.668;2022-10-18T01:56:54;25.10;74.40
45969;DHT22;31676;40.444;-3.668;2022-10-18T02:07:30;25.10;74.40
45969;DHT22;31676;40.444;-3.668;2022-10-18T02:10:00;25.10;74.40
45969;DHT22;31676;40.444;-3.668;2022-10-18T02:12:27;25.10;74.40
45969;DHT22;31676;40.444;-3.668;2022-10-18T02:14:53;25.10;74.40
45969;DHT22;31676;40.444;-3.668;2022-10-18T02:17:20;25.10;74.40
45969;DHT22;31676;40.444;-3.668;2022-10-18T02:19:49;25.10;74.40
45969;DHT22;31676;40.444;-3.668;2022-10-18T02:22:16;25.10;74.40
45969;DHT22;31676;40.444;-3.668;2022-10-18T02:24:47;25.10;74.40
45969;DHT22;31676;40.444;-3.668;2022-10-18T02:27:13;25.10;74.40
45969;DHT22;31676;40.444;-3.668;2022-10-18T02:29:39;25.10;74.30
45969;DHT22;31676;40.444;-3.668;2022-10-18T02:32:09;25.10;74.40
45969;DHT22;31676;40.444;-3.668;2022-10-18T02:35:22;25.10;74.40
45969;DHT22;31676;40.444;-3.668;2022-10-18T02:37:22;25.10;74.40
45969;DHT22;31676;40.444;-3.668;2022-10-18T02:39:48;25.10;74.40
45969;DHT22;31676;40.444;-3.668;2022-10-18T02:42:15;25.10;74.40
45969;DHT22;31676;40.444;-3.668;2022-10-18T02:44:41;25.10;74.40
45969;DHT22;31676;40.444;-3.668;2022-10-18T02:47:08;25.10;74.40
45969;DHT22;31676;40.444;-3.668;2022-10-18T02:49:34;25.10;74.40
45969;DHT22;31676;40.444;-3.668;2022-10-18T02:52:00;25.10;74.40
45969;DHT22;31676;40.444;-3.668;2022-10-18T02:54:25;25.10;74.40
45969;DHT22;31676;40.444;-3.668;2022-10-18T02:56:51;25.10;74.40
45969;DHT22;31676;40.444;-3.668;2022-10-18T02:59:16;25.10;74.40
45969;DHT22;31676;40.444;-3.668;2022-10-18T03:01:42;25.10;74.40
45969;DHT22;31676;40.444;-3.668;2022-10-18T03:04:08;25.10;74.40
45969;DHT22;31676;40.444;-3.668;2022-10-18T03:06:33;25.10;74.40
45969;DHT22;31676;40.444;-3.668;2022-10-18T03:09:03;25.10;74.40
45969;DHT22;31676;40.444;-3.668;2022-10-18T03:11:29;25.10;74.40
45969;DHT22;31676;40.444;-3.668;2022-10-18T03:13:54;25.10;74.40
45969;DHT22;31676;40.444;-3.668;2022-10-18T03:16:20;25.10;74.40
45969;DHT22;31676;40.444;-3.668;2022-10-18T03:18:46;25.10;74.40
45969;DHT22;31676;40.444;-3.668;2022-10-18T03:21:11;25.10;74.40
45969;DHT22;31676;40.444;-3.668;2022-10-18T03:23:37;25.10;74.40
45969;DHT22;31676;40.444;-3.668;2022-10-18T03:26:04;25.10;74.40
45969;DHT22;31676;40.444;-3.668;2022-10-18T03:28:30;25.10;74.40
45969;DHT22;31676;40.444;-3.668;2022-10-18T03:31:02;25.00;75.00
45969;DHT22;31676;40.444;-3.668;2022-10-18T03:33:28;25.10;74.40
45969;DHT22;31676;40.444;-3.668;2022-10-18T03:35:54;25.10;74.40
45969;DHT22;31676;40.444;-3.668;2022-10-18T03:38:20;25.10;74.40
45969;DHT22;31676;40.444;-3.668;2022-10-18T03:40:46;25.00;74.40
45969;DHT22;31676;40.444;-3.668;2022-10-18T03:43:11;25.10;74.40
45969;DHT22;31676;40.444;-3.668;2022-10-18T03:45:37;25.10;74.40
45969;DHT22;31676;40.444;-3.668;2022-10-18T03:48:02;25.00;74.40
45969;DHT22;31676;40.444;-3.668;2022-10-18T03:50:28;25.10;74.50
45969;DHT22;31676;40.444;-3.668;2022-10-18T03:52:54;25.00;74.40
45969;DHT22;31676;40.444;-3.668;2022-10-18T03:55:20;25.00;74.40
45969;DHT22;31676;40.444;-3.668;2022-10-18T03:57:45;25.00;74.40
45969;DHT22;31676;40.444;-3.668;2022-10-18T04:00:11;25.10;74.40
45969;DHT22;31676;40.444;-3.668;2022-10-18T04:02:37;25.00;74.40
45969;DHT22;31676;40.444;-3.668;2022-10-18T04:05:03;25.00;74.40
45969;DHT22;31676;40.444;-3.668;2022-10-18T04:07:28;25.00;74.40
45969;DHT22;31676;40.444;-3.668;2022-10-18T04:09:54;25.00;74.40
45969;DHT22;31676;40.444;-3.668;2022-10-18T04:12:20;25.10;74.40
45969;DHT22;31676;40.444;-3.668;2022-10-18T04:14:45;25.00;74.40
45969;DHT22;31676;40.444;-3.668;2022-10-18T04:17:11;25.00;74.30
45969;DHT22;31676;40.444;-3.668;2022-10-18T04:19:37;25.00;74.40
45969;DHT22;31676;40.444;-3.668;2022-10-18T04:22:03;25.00;74.40
45969;DHT22;31676;40.444;-3.668;2022-10-18T04:24:28;25.00;74.40
45969;DHT22;31676;40.444;-3.668;2022-10-18T04:26:54;25.00;74.40
45969;DHT22;31676;40.444;-3.668;2022-10-18T04:29:20;25.00;74.40
45969;DHT22;31676;40.444;-3.668;2022-10-18T04:31:45;25.00;74.40
45969;DHT22;31676;40.444;-3.668;2022-10-18T04:34:11;25.00;74.40
45969;DHT22;31676;40.444;-3.668;2022-10-18T04:36:37;25.00;74.40
45969;DHT22;31676;40.444;-3.668;2022-10-18T04:39:02;25.00;74.40
45969;DHT22;31676;40.444;-3.668;2022-10-18T04:41:28;25.00;74.40
45969;DHT22;31676;40.444;-3.668;2022-10-18T04:43:54;25.00;74.40
45969;DHT22;31676;40.444;-3.668;2022-10-18T04:46:20;25.00;74.40
45969;DHT22;31676;40.444;-3.668;2022-10-18T04:48:45;25.00;74.40
45969;DHT22;31676;40.444;-3.668;2022-10-18T04:51:11;25.00;74.40
45969;DHT22;31676;40.444;-3.668;2022-10-18T04:53:36;25.00;74.40
45969;DHT22;31676;40.444;-3.668;2022-10-18T04:56:02;25.00;74.50
45969;DHT22;31676;40.444;-3.668;2022-10-18T04:58:28;25.00;74.40
45969;DHT22;31676;40.444;-3.668;2022-10-18T05:00:53;25.00;74.40
45969;DHT22;31676;40.444;-3.668;2022-10-18T05:03:19;25.00;74.40
45969;DHT22;31676;40.444;-3.668;2022-10-18T05:05:45;25.00;74.40
45969;DHT22;31676;40.444;-3.668;2022-10-18T05:08:11;25.00;74.40
45969;DHT22;31676;40.444;-3.668;2022-10-18T05:10:37;25.00;74.50
45969;DHT22;31676;40.444;-3.668;2022-10-18T05:13:03;25.00;74.40
45969;DHT22;31676;40.444;-3.668;2022-10-18T05:15:28;24.90;74.40
45969;DHT22;31676;40.444;-3.668;2022-10-18T05:17:54;25.00;74.40
45969;DHT22;31676;40.444;-3.668;2022-10-18T05:20:19;24.90;74.40
45969;DHT22;31676;40.444;-3.668;2022-10-18T05:22:45;25.00;74.50
45969;DHT22;31676;40.444;-3.668;2022-10-18T05:25:11;24.90;74.40
45969;DHT22;31676;40.444;-3.668;2022-10-18T05:27:37;24.90;74.50
45969;DHT22;31676;40.444;-3.668;2022-10-18T05:30:03;24.90;74.40
45969;DHT22;31676;40.444;-3.668;2022-10-18T05:32:28;24.90;74.40
45969;DHT22;31676;40.444;-3.668;2022-10-18T05:34:54;24.90;74.40
45969;DHT22;31676;40.444;-3.668;2022-10-18T05:37:20;24.90;74.40
45969;DHT22;31676;40.444;-3.668;2022-10-18T05:39:46;24.90;74.40
45969;DHT22;31676;40.444;-3.668;2022-10-18T05:42:11;24.90;74.40
45969;DHT22;31676;40.444;-3.668;2022-10-18T05:44:37;24.90;74.40
45969;DHT22;31676;40.444;-3.668;2022-10-18T05:47:03;24.90;74.40
45969;DHT22;31676;40.444;-3.668;2022-10-18T05:49:29;24.90;75.10
45969;DHT22;31676;40.444;-3.668;2022-10-18T05:51:54;24.90;74.40
45969;DHT22;31676;40.444;-3.668;2022-10-18T05:54:20;24.90;74.50
45969;DHT22;31676;40.444;-3.668;2022-10-18T05:56:46;24.90;74.40
45969;DHT22;31676;40.444;-3.668;2022-10-18T05:59:11;24.90;74.50
45969;DHT22;31676;40.444;-3.668;2022-10-18T06:01:40;24.90;74.50
45969;DHT22;31676;40.444;-3.668;2022-10-18T06:04:09;25.00;74.50
45969;DHT22;31676;40.444;-3.668;2022-10-18T06:07:18;24.90;74.50
45969;DHT22;31676;40.444;-3.668;2022-10-18T06:09:57;24.90;74.50
45969;DHT22;31676;40.444;-3.668;2022-10-18T06:12:22;24.90;74.50
45969;DHT22;31676;40.444;-3.668;2022-10-18T06:14:48;24.90;74.50
45969;DHT22;31676;40.444;-3.668;2022-10-18T06:17:14;24.90;74.50
45969;DHT22;31676;40.444;-3.668;2022-10-18T06:19:39;24.90;74.50
45969;DHT22;31676;40.444;-3.668;2022-10-18T06:22:07;24.90;74.50
45969;DHT22;31676;40.444;-3.668;2022-10-18T06:24:33;24.90;74.50
45969;DHT22;31676;40.444;-3.668;2022-10-18T06:26:58;24.90;74.50
45969;DHT22;31676;40.444;-3.668;2022-10-18T06:29:24;24.90;74.50
45969;DHT22;31676;40.444;-3.668;2022-10-18T06:31:50;24.90;74.50
45969;DHT22;31676;40.444;-3.668;2022-10-18T06:34:16;24.90;74.50
45969;DHT22;31676;40.444;-3.668;2022-10-18T06:36:41;24.90;74.50
45969;DHT22;31676;40.444;-3.668;2022-10-18T06:39:07;24.90;74.50
45969;DHT22;31676;40.444;-3.668;2022-10-18T06:41:33;24.90;74.50
45969;DHT22;31676;40.444;-3.668;2022-10-18T06:43:58;24.90;74.50
45969;DHT22;31676;40.444;-3.668;2022-10-18T06:46:28;24.90;74.50
45969;DHT22;31676;40.444;-3.668;2022-10-18T06:48:53;24.90;74.50
45969;DHT22;31676;40.444;-3.668;2022-10-18T06:51:19;24.90;74.60
45969;DHT22;31676;40.444;-3.668;2022-10-18T06:53:45;24.90;74.50
45969;DHT22;31676;40.444;-3.668;2022-10-18T06:56:11;24.90;74.50
45969;DHT22;31676;40.444;-3.668;2022-10-18T06:58:37;24.90;74.50
45969;DHT22;31676;40.444;-3.668;2022-10-18T07:01:09;24.90;74.50
45969;DHT22;31676;40.444;-3.668;2022-10-18T07:03:35;24.90;74.50
45969;DHT22;31676;40.444;-3.668;2022-10-18T07:06:02;24.90;74.60
45969;DHT22;31676;40.444;-3.668;2022-10-18T07:08:27;24.90;74.60
45969;DHT22;31676;40.444;-3.668;2022-10-18T07:10:54;24.90;74.50
45969;DHT22;31676;40.444;-3.668;2022-10-18T07:13:20;24.90;74.50
45969;DHT22;31676;40.444;-3.668;2022-10-18T07:15:46;24.90;74.50
45969;DHT22;31676;40.444;-3.668;2022-10-18T07:18:12;24.90;74.50
45969;DHT22;31676;40.444;-3.668;2022-10-18T07:20:38;24.90;74.50
45969;DHT22;31676;40.444;-3.668;2022-10-18T07:23:10;24.90;74.50
45969;DHT22;31676;40.444;-3.668;2022-10-18T07:25:36;24.90;74.50
45969;DHT22;31676;40.444;-3.668;2022-10-18T07:28:02;24.90;74.50
45969;DHT22;31676;40.444;-3.668;2022-10-18T07:30:31;24.90;74.50
45969;DHT22;31676;40.444;-3.668;2022-10-18T07:32:56;24.90;74.50
45969;DHT22;31676;40.444;-3.668;2022-10-18T07:35:22;24.90;74.50
45969;DHT22;31676;40.444;-3.668;2022-10-18T07:37:48;24.90;74.50
45969;DHT22;31676;40.444;-3.668;2022-10-18T07:40:13;24.90;74.50
45969;DHT22;31676;40.444;-3.668;2022-10-18T07:42:39;24.80;74.40
45969;DHT22;31676;40.444;-3.668;2022-10-18T07:45:05;24.80;74.50
45969;DHT22;31676;40.444;-3.668;2022-10-18T07:47:31;24.90;74.50
45969;DHT22;31676;40.444;-3.668;2022-10-18T07:49:56;24.80;74.50
45969;DHT22;31676;40.444;-3.668;2022-10-18T07:52:22;24.80;74.50
45969;DHT22;31676;40.444;-3.668;2022-10-18T07:54:48;24.80;74.40
45969;DHT22;31676;40.444;-3.668;2022-10-18T07:57:13;24.80;74.50
45969;DHT22;31676;40.444;-3.668;2022-10-18T07:59:39;24.80;74.50
45969;DHT22;31676;40.444;-3.668;2022-10-18T08:02:05;24.80;74.50
45969;DHT22;31676;40.444;-3.668;2022-10-18T08:04:31;24.80;74.50
45969;DHT22;31676;40.444;-3.668;2022-10-18T08:06:57;24.80;74.50
45969;DHT22;31676;40.444;-3.668;2022-10-18T08:09:22;24.80;74.50
45969;DHT22;31676;40.444;-3.668;2022-10-18T08:11:48;24.80;74.50
45969;DHT22;31676;40.444;-3.668;2022-10-18T08:14:14;24.80;74.50
45969;DHT22;31676;40.444;-3.668;2022-10-18T08:16:39;24.80;74.50
45969;DHT22;31676;40.444;-3.668;2022-10-18T08:19:05;24.80;74.50
45969;DHT22;31676;40.444;-3.668;2022-10-18T08:21:31;24.80;74.50
45969;DHT22;31676;40.444;-3.668;2022-10-18T08:23:56;24.80;74.50
45969;DHT22;31676;40.444;-3.668;2022-10-18T08:26:22;24.80;74.50
45969;DHT22;31676;40.444;-3.668;2022-10-18T08:28:48;24.80;74.50
45969;DHT22;31676;40.444;-3.668;2022-10-18T08:31:15;24.80;74.60
45969;DHT22;31676;40.444;-3.668;2022-10-18T08:33:45;24.70;74.50
45969;DHT22;31676;40.444;-3.668;2022-10-18T08:36:11;24.80;74.60
45969;DHT22;31676;40.444;-3.668;2022-10-18T08:38:38;24.70;74.50
45969;DHT22;31676;40.444;-3.668;2022-10-18T08:43:40;24.70;74.50
45969;DHT22;31676;40.444;-3.668;2022-10-18T08:46:10;24.70;74.50
45969;DHT22;31676;40.444;-3.668;2022-10-18T08:48:37;24.70;74.50
45969;DHT22;31676;40.444;-3.668;2022-10-18T08:51:05;24.70;74.50
45969;DHT22;31676;40.444;-3.668;2022-10-18T08:53:39;24.70;74.50
45969;DHT22;31676;40.444;-3.668;2022-10-18T08:56:10;24.70;74.50
45969;DHT22;31676;40.444;-3.668;2022-10-18T08:58:40;24.70;74.50
45969;DHT22;31676;40.444;-3.668;2022-10-18T09:01:11;24.70;74.50
45969;DHT22;31676;40.444;-3.668;2022-10-18T09:14:05;24.70;74.40
45969;DHT22;31676;40.444;-3.668;2022-10-18T09:19:37;24.70;74.40
45969;DHT22;31676;40.444;-3.668;2022-10-18T09:21:56;24.70;74.40
45969;DHT22;31676;40.444;-3.668;2022-10-18T09:24:26;24.70;74.40
45969;DHT22;31676;40.444;-3.668;2022-10-18T09:27:04;24.70;74.40
45969;DHT22;31676;40.444;-3.668;2022-10-18T09:34:50;24.80;74.50
45969;DHT22;31676;40.444;-3.668;2022-10-18T09:37:18;24.70;74.40
45969;DHT22;31676;40.444;-3.668;2022-10-18T09:39:44;24.70;74.40
45969;DHT22;31676;40.444;-3.668;2022-10-18T09:42:15;24.70;74.40
45969;DHT22;31676;40.444;-3.668;2022-10-18T09:44:48;24.70;74.40
45969;DHT22;31676;40.444;-3.668;2022-10-18T09:47:20;24.80;74.50
45969;DHT22;31676;40.444;-3.668;2022-10-18T09:49:56;24.70;74.40
45969;DHT22;31676;40.444;-3.668;2022-10-18T09:52:27;24.70;74.40
45969;DHT22;31676;40.444;-3.668;2022-10-18T09:54:56;24.80;74.40
45969;DHT22;31676;40.444;-3.668;2022-10-18T09:57:31;24.70;74.40
45969;DHT22;31676;40.444;-3.668;2022-10-18T09:59:58;24.70;74.40
45969;DHT22;31676;40.444;-3.668;2022-10-18T10:02:24;24.80;74.50
45969;DHT22;31676;40.444;-3.668;2022-10-18T10:04:50;24.70;74.40
45969;DHT22;31676;40.444;-3.668;2022-10-18T10:07:29;24.80;74.40
45969;DHT22;31676;40.444;-3.668;2022-10-18T10:10:03;24.80;74.40
45969;DHT22;31676;40.444;-3.668;2022-10-18T10:12:35;24.80;74.40
45969;DHT22;31676;40.444;-3.668;2022-10-18T10:20:47;24.80;74.40
45969;DHT22;31676;40.444;-3.668;2022-10-18T10:23:17;24.80;74.40
45969;DHT22;31676;40.444;-3.668;2022-10-18T10:25:44;24.70;74.40
45969;DHT22;31676;40.444;-3.668;2022-10-18T10:28:17;24.80;74.40
45969;DHT22;31676;40.444;-3.668;2022-10-18T10:30:44;24.80;74.40
45969;DHT22;31676;40.444;-3.668;2022-10-18T10:35:57;24.80;74.40
45969;DHT22;31676;40.444;-3.668;2022-10-18T10:38:24;24.80;74.40
45969;DHT22;31676;40.444;-3.668;2022-10-18T10:40:50;24.80;74.40
45969;DHT22;31676;40.444;-3.668;2022-10-18T10:45:55;24.80;74.30
45969;DHT22;31676;40.444;-3.668;2022-10-18T10:48:21;24.80;74.40
45969;DHT22;31676;40.444;-3.668;2022-10-18T10:51:06;24.80;74.40
45969;DHT22;31676;40.444;-3.668;2022-10-18T10:56:00;24.80;75.00
45969;DHT22;31676;40.444;-3.668;2022-10-18T10:58:27;24.80;74.40
45969;DHT22;31676;40.444;-3.668;2022-10-18T11:00:55;24.80;74.40
45969;DHT22;31676;40.444;-3.668;2022-10-18T11:03:22;24.80;74.40
45969;DHT22;31676;40.444;-3.668;2022-10-18T11:05:52;24.80;74.30
45969;DHT22;31676;40.444;-3.668;2022-10-18T11:08:30;24.80;74.40
45969;DHT22;31676;40.444;-3.668;2022-10-18T11:11:18;24.80;74.40
45969;DHT22;31676;40.444;-3.668;2022-10-18T11:13:49;24.80;74.40
45969;DHT22;31676;40.444;-3.668;2022-10-18T11:16:23;24.90;74.40
45969;DHT22;31676;40.444;-3.668;2022-10-18T11:18:50;24.80;74.40
45969;DHT22;31676;40.444;-3.668;2022-10-18T11:21:26;24.80;74.30
45969;DHT22;31676;40.444;-3.668;2022-10-18T11:23:53;24.80;74.40
45969;DHT22;31676;40.444;-3.668;2022-10-18T11:26:23;24.80;74.30
45969;DHT22;31676;40.444;-3.668;2022-10-18T11:28:57;24.80;74.30
45969;DHT22;31676;40.444;-3.668;2022-10-18T11:31:31;24.90;74.40
45969;DHT22;31676;40.444;-3.668;2022-10-18T11:36:32;24.80;74.30
45969;DHT22;31676;40.444;-3.668;2022-10-18T11:39:12;24.80;74.30
45969;DHT22;31676;40.444;-3.668;2022-10-18T11:54:34;24.90;74.40
45969;DHT22;31676;40.444;-3.668;2022-10-18T11:59:37;24.90;74.40
45969;DHT22;31676;40.444;-3.668;2022-10-18T12:04:46;24.90;74.40
45969;DHT22;31676;40.444;-3.668;2022-10-18T12:07:15;24.90;74.40
45969;DHT22;31676;40.444;-3.668;2022-10-18T12:09:43;24.90;74.30
45969;DHT22;31676;40.444;-3.668;2022-10-18T12:14:58;24.90;74.30
45969;DHT22;31676;40.444;-3.668;2022-10-18T12:17:33;24.90;74.30
45969;DHT22;31676;40.444;-3.668;2022-10-18T12:20:04;24.90;74.40
45969;DHT22;31676;40.444;-3.668;2022-10-18T12:22:43;24.90;74.30
45969;DHT22;31676;40.444;-3.668;2022-10-18T12:25:14;24.90;74.30
45969;DHT22;31676;40.444;-3.668;2022-10-18T12:30:31;24.90;74.30
45969;DHT22;31676;40.444;-3.668;2022-10-18T12:33:03;25.00;74.40
45969;DHT22;31676;40.444;-3.668;2022-10-18T12:35:30;24.90;74.30
45969;DHT22;31676;40.444;-3.668;2022-10-18T12:40:37;24.90;74.40
45969;DHT22;31676;40.444;-3.668;2022-10-18T12:43:07;24.90;74.30
45969;DHT22;31676;40.444;-3.668;2022-10-18T12:45:33;24.90;74.30
45969;DHT22;31676;40.444;-3.668;2022-10-18T12:48:00;24.90;74.30
45969;DHT22;31676;40.444;-3.668;2022-10-18T12:50:33;24.90;74.30
45969;DHT22;31676;40.444;-3.668;2022-10-18T12:55:37;25.00;74.30
45969;DHT22;31676;40.444;-3.668;2022-10-18T12:58:04;25.00;74.30
45969;DHT22;31676;40.444;-3.668;2022-10-18T13:08:54;25.00;74.40
45969;DHT22;31676;40.444;-3.668;2022-10-18T13:13:41;25.00;74.40
45969;DHT22;31676;40.444;-3.668;2022-10-18T13:18:48;25.00;74.40
45969;DHT22;31676;40.444;-3.668;2022-10-18T13:21:28;25.00;74.40
45969;DHT22;31676;40.444;-3.668;2022-10-18T13:32:18;25.00;74.40
45969;DHT22;31676;40.444;-3.668;2022-10-18T13:34:48;25.00;74.40
45969;DHT22;31676;40.444;-3.668;2022-10-18T13:39:40;25.10;74.40
45969;DHT22;31676;40.444;-3.668;2022-10-18T13:42:19;25.00;74.40
45969;DHT22;31676;40.444;-3.668;2022-10-18T13:44:52;25.10;74.50
45969;DHT22;31676;40.444;-3.668;2022-10-18T13:50:32;25.10;74.50
45969;DHT22;31676;40.444;-3.668;2022-10-18T13:53:21;25.10;74.50
45969;DHT22;31676;40.444;-3.668;2022-10-18T13:58:49;25.10;75.10
45969;DHT22;31676;40.444;-3.668;2022-10-18T14:06:35;25.10;74.50
45969;DHT22;31676;40.444;-3.668;2022-10-18T14:14:14;25.10;74.50
45969;DHT22;31676;40.444;-3.668;2022-10-18T14:16:57;25.20;74.60
45969;DHT22;31676;40.444;-3.668;2022-10-18T14:21:51;25.20;74.50
45969;DHT22;31676;40.444;-3.668;2022-10-18T14:24:20;25.20;74.50
45969;DHT22;31676;40.444;-3.668;2022-10-18T14:26:46;25.20;74.50
45969;DHT22;31676;40.444;-3.668;2022-10-18T14:29:16;25.20;74.50
45969;DHT22;31676;40.444;-3.668;2022-10-18T14:31:48;25.20;74.50
45969;DHT22;31676;40.444;-3.668;2022-10-18T14:34:15;25.20;74.50
45969;DHT22;31676;40.444;-3.668;2022-10-18T14:36:41;25.20;74.50
45969;DHT22;31676;40.444;-3.668;2022-10-18T14:39:28;25.20;74.50
45969;DHT22;31676;40.444;-3.668;2022-10-18T14:41:55;25.20;74.50
45969;DHT22;31676;40.444;-3.668;2022-10-18T14:44:26;25.20;74.40
45969;DHT22;31676;40.444;-3.668;2022-10-18T14:49:24;25.20;74.40
45969;DHT22;31676;40.444;-3.668;2022-10-18T14:51:54;25.30;74.40
45969;DHT22;31676;40.444;-3.668;2022-10-18T14:54:22;25.20;74.40
45969;DHT22;31676;40.444;-3.668;2022-10-18T14:56:49;25.20;74.40
45969;DHT22;31676;40.444;-3.668;2022-10-18T14:59:38;25.20;74.30
45969;DHT22;31676;40.444;-3.668;2022-10-18T15:02:13;25.30;74.40
45969;DHT22;31676;40.444;-3.668;2022-10-18T15:04:42;25.30;74.50
45969;DHT22;31676;40.444;-3.668;2022-10-18T15:07:12;25.30;74.50
45969;DHT22;31676;40.444;-3.668;2022-10-18T15:09:38;25.20;74.40
45969;DHT22;31676;40.444;-3.668;2022-10-18T15:12:05;25.30;74.40
45969;DHT22;31676;40.444;-3.668;2022-10-18T15:14:31;25.30;74.40
45969;DHT22;31676;40.444;-3.668;2022-10-18T15:16:59;25.30;74.50
45969;DHT22;31676;40.444;-3.668;2022-10-18T15:19:30;25.30;74.40
45969;DHT22;31676;40.444;-3.668;2022-10-18T15:24:28;25.30;74.40
45969;DHT22;31676;40.444;-3.668;2022-10-18T15:26:55;25.30;74.40
45969;DHT22;31676;40.444;-3.668;2022-10-18T15:29:24;25.30;74.40
45969;DHT22;31676;40.444;-3.668;2022-10-18T15:31:49;25.30;74.40
45969;DHT22;31676;40.444;-3.668;2022-10-18T15:36:44;25.30;74.40
45969;DHT22;31676;40.444;-3.668;2022-10-18T15:44:17;25.30;74.40
45969;DHT22;31676;40.444;-3.668;2022-10-18T15:46:44;25.30;74.40
45969;DHT22;31676;40.444;-3.668;2022-10-18T15:51:54;25.30;74.40
45969;DHT22;31676;40.444;-3.668;2022-10-18T15:54:30;25.30;74.40
45969;DHT22;31676;40.444;-3.668;2022-10-18T15:56:56;25.30;74.40
45969;DHT22;31676;40.444;-3.668;2022-10-18T15:59:23;25.30;74.40
45969;DHT22;31676;40.444;-3.668;2022-10-18T16:01:49;25.30;74.40
45969;DHT22;31676;40.444;-3.668;2022-10-18T16:06:44;25.30;74.40
45969;DHT22;31676;40.444;-3.668;2022-10-18T16:09:14;25.30;74.40
45969;DHT22;31676;40.444;-3.668;2022-10-18T16:11:40;25.30;74.40
45969;DHT22;31676;40.444;-3.668;2022-10-18T16:14:06;25.30;74.40
45969;DHT22;31676;40.444;-3.668;2022-10-18T16:16:32;25.30;74.30
45969;DHT22;31676;40.444;-3.668;2022-10-18T16:18:58;25.30;74.30
45969;DHT22;31676;40.444;-3.668;2022-10-18T16:21:27;25.30;74.30
45969;DHT22;31676;40.444;-3.668;2022-10-18T16:23:53;25.30;74.40
45969;DHT22;31676;40.444;-3.668;2022-10-18T16:26:20;25.30;74.30
45969;DHT22;31676;40.444;-3.668;2022-10-18T16:28:46;25.30;74.40
45969;DHT22;31676;40.444;-3.668;2022-10-18T16:31:13;25.30;74.30
45969;DHT22;31676;40.444;-3.668;2022-10-18T16:33:40;25.40;74.40
45969;DHT22;31676;40.444;-3.668;2022-10-18T16:36:05;25.30;74.40
45969;DHT22;31676;40.444;-3.668;2022-10-18T16:38:32;25.40;74.40
45969;DHT22;31676;40.444;-3.668;2022-10-18T16:40:58;25.30;74.40
45969;DHT22;31676;40.444;-3.668;2022-10-18T16:43:24;25.30;74.40
45969;DHT22;31676;40.444;-3.668;2022-10-18T16:45:51;25.40;74.50
45969;DHT22;31676;40.444;-3.668;2022-10-18T16:48:18;25.40;74.50
45969;DHT22;31676;40.444;-3.668;2022-10-18T16:50:44;25.30;74.40
45969;DHT22;31676;40.444;-3.668;2022-10-18T16:53:10;25.30;74.40
45969;DHT22;31676;40.444;-3.668;2022-10-18T16:55:36;25.30;74.40
45969;DHT22;31676;40.444;-3.668;2022-10-18T16:58:02;25.40;74.40
45969;DHT22;31676;40.444;-3.668;2022-10-18T17:00:28;25.30;74.30
45969;DHT22;31676;40.444;-3.668;2022-10-18T17:02:53;25.30;74.30
45969;DHT22;31676;40.444;-3.668;2022-10-18T17:05:19;25.30;74.30
45969;DHT22;31676;40.444;-3.668;2022-10-18T17:07:45;25.40;74.40
45969;DHT22;31676;40.444;-3.668;2022-10-18T17:10:12;25.40;74.50
45969;DHT22;31676;40.444;-3.668;2022-10-18T17:12:38;25.30;74.30
45969;DHT22;31676;40.444;-3.668;2022-10-18T17:15:04;25.40;74.40
45969;DHT22;31676;40.444;-3.668;2022-10-18T17:17:30;25.30;74.30
45969;DHT22;31676;40.444;-3.668;2022-10-18T17:19:55;25.40;74.40
45969;DHT22;31676;40.444;-3.668;2022-10-18T17:22:21;25.30;74.30
45969;DHT22;31676;40.444;-3.668;2022-10-18T17:24:47;25.40;74.40
45969;DHT22;31676;40.444;-3.668;2022-10-18T17:27:12;25.30;74.40
45969;DHT22;31676;40.444;-3.668;2022-10-18T17:29:38;25.40;74.40
45969;DHT22;31676;40.444;-3.668;2022-10-18T17:32:05;25.30;74.40
45969;DHT22;31676;40.444;-3.668;2022-10-18T17:34:31;25.30;74.40
45969;DHT22;31676;40.444;-3.668;2022-10-18T17:36:57;25.30;74.40
45969;DHT22;31676;40.444;-3.668;2022-10-18T17:39:23;25.30;74.40
45969;DHT22;31676;40.444;-3.668;2022-10-18T17:41:49;25.30;74.40
45969;DHT22;31676;40.444;-3.668;2022-10-18T17:44:15;25.40;74.40
45969;DHT22;31676;40.444;-3.668;2022-10-18T17:46:40;25.30;74.40
45969;DHT22;31676;40.444;-3.668;2022-10-18T17:49:06;25.30;74.40
45969;DHT22;31676;40.444;-3.668;2022-10-18T17:51:32;25.40;74.50
45969;DHT22;31676;40.444;-3.668;2022-10-18T17:53:58;25.30;74.40